sensor_id;sensor_type;location;lat;lon;timestamp;P1;durP1;ratioP1;P2;durP2;ratioP2
44893;SDS011;30625;52.206;21.030;2022-12-10T00:01:06;112.75;;;48.50;;
44893;SDS011;30625;52.206;21.030;2022-12-10T00:03:33;110.60;;;45.78;;
44893;SDS011;30625;52.206;21.030;2022-12-10T00:06:00;106.10;;;46.75;;
44893;SDS011;30625;52.206;21.030;2022-12-10T00:08:27;113.63;;;47.47;;
44893;SDS011;30625;52.206;21.030;2022-12-10T00:10:52;103.90;;;46.80;;
44893;SDS011;30625;52.206;21.030;2022-12-10T00:13:18;100.88;;;45.63;;
44893;SDS011;30625;52.206;21.030;2022-12-10T00:15:44;107.85;;;47.97;;
44893;SDS011;30625;52.206;21.030;2022-12-10T00:18:09;104.00;;;46.28;;
44893;SDS011;30625;52.206;21.030;2022-12-10T00:20:37;103.00;;;46.40;;
44893;SDS011;30625;52.206;21.030;2022-12-10T00:23:03;109.93;;;47.72;;
44893;SDS011;30625;52.206;21.030;2022-12-10T00:25:29;109.13;;;47.60;;
44893;SDS011;30625;52.206;21.030;2022-12-10T00:27:56;104.80;;;46.40;;
44893;SDS011;30625;52.206;21.030;2022-12-10T00:30:22;101.03;;;46.42;;
44893;SDS011;30625;52.206;21.030;2022-12-10T00:32:48;108.00;;;45.92;;
44893;SDS011;30625;52.206;21.030;2022-12-10T00:35:13;113.53;;;49.55;;
44893;SDS011;30625;52.206;21.030;2022-12-10T00:37:39;118.68;;;48.75;;
44893;SDS011;30625;52.206;21.030;2022-12-10T00:40:05;112.47;;;48.78;;
44893;SDS011;30625;52.206;21.030;2022-12-10T00:44:57;116.13;;;50.15;;
44893;SDS011;30625;52.206;21.030;2022-12-10T00:47:22;116.57;;;49.80;;
44893;SDS011;30625;52.206;21.030;2022-12-10T00:49:48;123.28;;;50.60;;
44893;SDS011;30625;52.206;21.030;2022-12-10T00:52:14;124.43;;;51.58;;
44893;SDS011;30625;52.206;21.030;2022-12-10T00:54:39;121.60;;;50.55;;
44893;SDS011;30625;52.206;21.030;2022-12-10T00:57:05;117.38;;;50.80;;
44893;SDS011;30625;52.206;21.030;2022-12-10T00:59:31;123.47;;;51.22;;
44893;SDS011;30625;52.206;21.030;2022-12-10T01:01:57;121.00;;;49.75;;
44893;SDS011;30625;52.206;21.030;2022-12-10T01:04:23;121.05;;;52.25;;
44893;SDS011;30625;52.206;21.030;2022-12-10T01:06:50;117.30;;;49.83;;
44893;SDS011;30625;52.206;21.030;2022-12-10T01:09:18;106.53;;;46.30;;
44893;SDS011;30625;52.206;21.030;2022-12-10T01:11:46;115.10;;;48.22;;
44893;SDS011;30625;52.206;21.030;2022-12-10T01:14:18;111.88;;;47.55;;
44893;SDS011;30625;52.206;21.030;2022-12-10T01:16:46;111.40;;;46.47;;
44893;SDS011;30625;52.206;21.030;2022-12-10T01:19:12;112.35;;;46.97;;
44893;SDS011;30625;52.206;21.030;2022-12-10T01:21:38;110.90;;;48.58;;
44893;SDS011;30625;52.206;21.030;2022-12-10T01:24:04;106.40;;;47.78;;
44893;SDS011;30625;52.206;21.030;2022-12-10T01:26:31;114.00;;;47.17;;
44893;SDS011;30625;52.206;21.030;2022-12-10T01:28:57;109.68;;;46.28;;
44893;SDS011;30625;52.206;21.030;2022-12-10T01:31:25;104.07;;;44.22;;
44893;SDS011;30625;52.206;21.030;2022-12-10T01:33:53;108.07;;;46.83;;
44893;SDS011;30625;52.206;21.030;2022-12-10T01:36:21;113.32;;;46.97;;
44893;SDS011;30625;52.206;21.030;2022-12-10T01:38:49;116.40;;;47.72;;
44893;SDS011;30625;52.206;21.030;2022-12-10T01:44:02;104.78;;;43.33;;
44893;SDS011;30625;52.206;21.030;2022-12-10T01:46:35;111.03;;;46.65;;
44893;SDS011;30625;52.206;21.030;2022-12-10T01:49:12;108.18;;;45.53;;
44893;SDS011;30625;52.206;21.030;2022-12-10T01:51:44;112.55;;;44.95;;
44893;SDS011;30625;52.206;21.030;2022-12-10T01:54:17;107.00;;;45.45;;
44893;SDS011;30625;52.206;21.030;2022-12-10T01:57:08;113.53;;;44.20;;
44893;SDS011;30625;52.206;21.030;2022-12-10T01:59:37;104.35;;;43.78;;
44893;SDS011;30625;52.206;21.030;2022-12-10T02:07:49;100.68;;;41.75;;
44893;SDS011;30625;52.206;21.030;2022-12-10T02:13:18;91.82;;;39.40;;
44893;SDS011;30625;52.206;21.030;2022-12-10T02:16:07;91.90;;;39.28;;
44893;SDS011;30625;52.206;21.030;2022-12-10T02:18:48;92.05;;;39.60;;
44893;SDS011;30625;52.206;21.030;2022-12-10T02:21:23;96.65;;;39.45;;
44893;SDS011;30625;52.206;21.030;2022-12-10T02:29:28;86.50;;;36.45;;
44893;SDS011;30625;52.206;21.030;2022-12-10T02:31:55;87.88;;;37.80;;
44893;SDS011;30625;52.206;21.030;2022-12-10T02:34:26;86.97;;;36.60;;
44893;SDS011;30625;52.206;21.030;2022-12-10T02:36:55;86.70;;;35.03;;
44893;SDS011;30625;52.206;21.030;2022-12-10T02:39:25;85.20;;;34.83;;
44893;SDS011;30625;52.206;21.030;2022-12-10T02:41:54;85.22;;;35.45;;
44893;SDS011;30625;52.206;21.030;2022-12-10T02:44:22;78.18;;;33.42;;
44893;SDS011;30625;52.206;21.030;2022-12-10T02:46:50;80.15;;;34.65;;
44893;SDS011;30625;52.206;21.030;2022-12-10T02:49:18;80.45;;;34.13;;
44893;SDS011;30625;52.206;21.030;2022-12-10T02:51:45;80.22;;;33.28;;
44893;SDS011;30625;52.206;21.030;2022-12-10T02:54:56;87.60;;;33.92;;
44893;SDS011;30625;52.206;21.030;2022-12-10T03:05:05;75.97;;;30.65;;
44893;SDS011;30625;52.206;21.030;2022-12-10T03:07:38;65.75;;;28.88;;
44893;SDS011;30625;52.206;21.030;2022-12-10T03:10:55;63.45;;;27.35;;
44893;SDS011;30625;52.206;21.030;2022-12-10T03:13:09;60.28;;;28.02;;
44893;SDS011;30625;52.206;21.030;2022-12-10T03:15:40;61.25;;;27.73;;
44893;SDS011;30625;52.206;21.030;2022-12-10T03:18:07;62.03;;;27.55;;
44893;SDS011;30625;52.206;21.030;2022-12-10T03:20:39;64.45;;;27.70;;
44893;SDS011;30625;52.206;21.030;2022-12-10T03:23:09;65.32;;;28.73;;
44893;SDS011;30625;52.206;21.030;2022-12-10T03:25:40;67.65;;;28.80;;
44893;SDS011;30625;52.206;21.030;2022-12-10T03:28:07;66.63;;;29.55;;
44893;SDS011;30625;52.206;21.030;2022-12-10T03:33:01;65.63;;;28.48;;
44893;SDS011;30625;52.206;21.030;2022-12-10T03:35:27;75.93;;;32.17;;
44893;SDS011;30625;52.206;21.030;2022-12-10T03:37:53;72.70;;;31.02;;
44893;SDS011;30625;52.206;21.030;2022-12-10T03:40:21;67.75;;;30.60;;
44893;SDS011;30625;52.206;21.030;2022-12-10T03:42:48;71.22;;;30.50;;
44893;SDS011;30625;52.206;21.030;2022-12-10T03:45:14;76.00;;;32.63;;
44893;SDS011;30625;52.206;21.030;2022-12-10T03:47:40;71.10;;;29.00;;
44893;SDS011;30625;52.206;21.030;2022-12-10T03:50:07;71.78;;;29.88;;
44893;SDS011;30625;52.206;21.030;2022-12-10T03:52:33;64.78;;;28.42;;
44893;SDS011;30625;52.206;21.030;2022-12-10T03:54:59;70.60;;;29.00;;
44893;SDS011;30625;52.206;21.030;2022-12-10T03:57:25;67.40;;;28.70;;
44893;SDS011;30625;52.206;21.030;2022-12-10T03:59:51;68.55;;;27.42;;
44893;SDS011;30625;52.206;21.030;2022-12-10T04:02:16;60.35;;;26.75;;
44893;SDS011;30625;52.206;21.030;2022-12-10T04:04:42;72.55;;;29.10;;
44893;SDS011;30625;52.206;21.030;2022-12-10T04:07:08;76.65;;;28.30;;
44893;SDS011;30625;52.206;21.030;2022-12-10T04:09:34;64.18;;;27.02;;
44893;SDS011;30625;52.206;21.030;2022-12-10T04:12:00;65.40;;;28.15;;
44893;SDS011;30625;52.206;21.030;2022-12-10T04:14:26;66.38;;;27.60;;
44893;SDS011;30625;52.206;21.030;2022-12-10T04:17:11;62.00;;;27.40;;
44893;SDS011;30625;52.206;21.030;2022-12-10T04:22:02;67.55;;;27.50;;
44893;SDS011;30625;52.206;21.030;2022-12-10T04:24:47;72.63;;;28.75;;
44893;SDS011;30625;52.206;21.030;2022-12-10T04:27:32;69.22;;;27.15;;
44893;SDS011;30625;52.206;21.030;2022-12-10T04:30:04;58.85;;;26.13;;
44893;SDS011;30625;52.206;21.030;2022-12-10T04:32:32;61.55;;;25.33;;
44893;SDS011;30625;52.206;21.030;2022-12-10T04:34:58;62.53;;;26.23;;
44893;SDS011;30625;52.206;21.030;2022-12-10T04:37:26;55.85;;;24.58;;
44893;SDS011;30625;52.206;21.030;2022-12-10T04:39:52;60.50;;;24.20;;
44893;SDS011;30625;52.206;21.030;2022-12-10T04:42:18;60.95;;;24.42;;
44893;SDS011;30625;52.206;21.030;2022-12-10T04:44:45;60.50;;;24.85;;
44893;SDS011;30625;52.206;21.030;2022-12-10T04:47:11;54.42;;;21.75;;
44893;SDS011;30625;52.206;21.030;2022-12-10T04:49:37;58.67;;;23.98;;
44893;SDS011;30625;52.206;21.030;2022-12-10T04:52:04;54.67;;;23.50;;
44893;SDS011;30625;52.206;21.030;2022-12-10T04:54:31;58.30;;;23.63;;
44893;SDS011;30625;52.206;21.030;2022-12-10T04:56:57;69.38;;;26.90;;
44893;SDS011;30625;52.206;21.030;2022-12-10T04:59:23;55.42;;;22.95;;
44893;SDS011;30625;52.206;21.030;2022-12-10T05:01:48;59.95;;;25.42;;
44893;SDS011;30625;52.206;21.030;2022-12-10T05:04:16;61.33;;;24.02;;
44893;SDS011;30625;52.206;21.030;2022-12-10T05:06:43;62.03;;;24.98;;
44893;SDS011;30625;52.206;21.030;2022-12-10T05:09:10;64.40;;;24.58;;
44893;SDS011;30625;52.206;21.030;2022-12-10T05:11:37;60.17;;;25.73;;
44893;SDS011;30625;52.206;21.030;2022-12-10T05:14:03;58.15;;;25.33;;
44893;SDS011;30625;52.206;21.030;2022-12-10T05:16:29;63.85;;;24.58;;
44893;SDS011;30625;52.206;21.030;2022-12-10T05:18:57;60.42;;;24.65;;
44893;SDS011;30625;52.206;21.030;2022-12-10T05:24:10;66.15;;;23.60;;
44893;SDS011;30625;52.206;21.030;2022-12-10T05:26:35;60.33;;;23.08;;
44893;SDS011;30625;52.206;21.030;2022-12-10T05:29:01;54.75;;;21.88;;
44893;SDS011;30625;52.206;21.030;2022-12-10T05:31:28;57.42;;;22.98;;
44893;SDS011;30625;52.206;21.030;2022-12-10T05:33:55;56.85;;;23.38;;
44893;SDS011;30625;52.206;21.030;2022-12-10T05:36:23;52.88;;;21.25;;
44893;SDS011;30625;52.206;21.030;2022-12-10T05:38:51;57.35;;;21.52;;
44893;SDS011;30625;52.206;21.030;2022-12-10T05:41:19;59.97;;;22.35;;
44893;SDS011;30625;52.206;21.030;2022-12-10T05:43:49;55.58;;;21.42;;
44893;SDS011;30625;52.206;21.030;2022-12-10T05:48:45;52.30;;;21.05;;
44893;SDS011;30625;52.206;21.030;2022-12-10T05:51:12;52.97;;;20.75;;
44893;SDS011;30625;52.206;21.030;2022-12-10T05:53:40;50.30;;;21.33;;
44893;SDS011;30625;52.206;21.030;2022-12-10T05:56:08;54.65;;;22.90;;
44893;SDS011;30625;52.206;21.030;2022-12-10T05:58:35;53.35;;;20.73;;
44893;SDS011;30625;52.206;21.030;2022-12-10T06:01:21;49.17;;;21.27;;
44893;SDS011;30625;52.206;21.030;2022-12-10T06:03:49;55.35;;;20.95;;
44893;SDS011;30625;52.206;21.030;2022-12-10T06:06:24;50.17;;;20.90;;
44893;SDS011;30625;52.206;21.030;2022-12-10T06:08:52;54.03;;;22.40;;
44893;SDS011;30625;52.206;21.030;2022-12-10T06:11:18;50.15;;;21.80;;
44893;SDS011;30625;52.206;21.030;2022-12-10T06:13:44;48.45;;;20.02;;
44893;SDS011;30625;52.206;21.030;2022-12-10T06:16:11;44.83;;;19.85;;
44893;SDS011;30625;52.206;21.030;2022-12-10T06:18:41;52.65;;;19.48;;
44893;SDS011;30625;52.206;21.030;2022-12-10T06:23:34;50.28;;;20.27;;
44893;SDS011;30625;52.206;21.030;2022-12-10T06:33:47;44.90;;;19.50;;
44893;SDS011;30625;52.206;21.030;2022-12-10T06:36:13;51.17;;;22.02;;
44893;SDS011;30625;52.206;21.030;2022-12-10T06:38:40;55.50;;;20.38;;
44893;SDS011;30625;52.206;21.030;2022-12-10T06:41:07;52.22;;;20.17;;
44893;SDS011;30625;52.206;21.030;2022-12-10T06:43:35;53.10;;;20.08;;
44893;SDS011;30625;52.206;21.030;2022-12-10T06:46:08;46.88;;;18.05;;
44893;SDS011;30625;52.206;21.030;2022-12-10T06:48:35;53.65;;;20.23;;
44893;SDS011;30625;52.206;21.030;2022-12-10T06:53:27;56.47;;;20.40;;
44893;SDS011;30625;52.206;21.030;2022-12-10T06:55:53;54.50;;;20.15;;
44893;SDS011;30625;52.206;21.030;2022-12-10T06:58:22;54.08;;;21.17;;
44893;SDS011;30625;52.206;21.030;2022-12-10T07:00:47;56.45;;;22.55;;
44893;SDS011;30625;52.206;21.030;2022-12-10T07:03:13;57.65;;;21.67;;
44893;SDS011;30625;52.206;21.030;2022-12-10T07:05:39;58.70;;;23.23;;
44893;SDS011;30625;52.206;21.030;2022-12-10T07:08:04;57.95;;;19.92;;
44893;SDS011;30625;52.206;21.030;2022-12-10T07:10:30;59.78;;;20.95;;
44893;SDS011;30625;52.206;21.030;2022-12-10T07:12:56;53.40;;;20.55;;
44893;SDS011;30625;52.206;21.030;2022-12-10T07:15:22;64.95;;;22.80;;
44893;SDS011;30625;52.206;21.030;2022-12-10T07:17:50;54.35;;;21.73;;
44893;SDS011;30625;52.206;21.030;2022-12-10T07:20:16;55.88;;;20.30;;
44893;SDS011;30625;52.206;21.030;2022-12-10T07:22:42;64.72;;;22.60;;
44893;SDS011;30625;52.206;21.030;2022-12-10T07:25:08;60.33;;;21.63;;
44893;SDS011;30625;52.206;21.030;2022-12-10T07:27:33;61.25;;;21.50;;
44893;SDS011;30625;52.206;21.030;2022-12-10T07:29:59;59.75;;;20.67;;
44893;SDS011;30625;52.206;21.030;2022-12-10T07:32:26;67.88;;;22.50;;
44893;SDS011;30625;52.206;21.030;2022-12-10T07:34:53;75.10;;;24.55;;
44893;SDS011;30625;52.206;21.030;2022-12-10T07:37:19;70.13;;;21.63;;
44893;SDS011;30625;52.206;21.030;2022-12-10T07:39:44;68.88;;;23.27;;
44893;SDS011;30625;52.206;21.030;2022-12-10T07:42:11;60.45;;;23.73;;
44893;SDS011;30625;52.206;21.030;2022-12-10T07:44:36;62.75;;;22.85;;
44893;SDS011;30625;52.206;21.030;2022-12-10T07:47:02;73.15;;;22.40;;
44893;SDS011;30625;52.206;21.030;2022-12-10T07:49:28;54.53;;;21.75;;
44893;SDS011;30625;52.206;21.030;2022-12-10T07:54:30;73.50;;;22.88;;
44893;SDS011;30625;52.206;21.030;2022-12-10T07:56:55;65.75;;;20.58;;
44893;SDS011;30625;52.206;21.030;2022-12-10T07:59:21;63.60;;;21.80;;
44893;SDS011;30625;52.206;21.030;2022-12-10T08:01:47;58.38;;;18.92;;
44893;SDS011;30625;52.206;21.030;2022-12-10T08:04:14;60.72;;;21.27;;
44893;SDS011;30625;52.206;21.030;2022-12-10T08:06:40;66.47;;;21.58;;
44893;SDS011;30625;52.206;21.030;2022-12-10T08:09:06;58.47;;;21.40;;
44893;SDS011;30625;52.206;21.030;2022-12-10T08:11:32;54.80;;;19.70;;
44893;SDS011;30625;52.206;21.030;2022-12-10T08:14:00;61.97;;;21.30;;
44893;SDS011;30625;52.206;21.030;2022-12-10T08:16:27;56.33;;;22.23;;
44893;SDS011;30625;52.206;21.030;2022-12-10T08:18:58;57.97;;;21.08;;
44893;SDS011;30625;52.206;21.030;2022-12-10T08:21:25;58.33;;;20.90;;
44893;SDS011;30625;52.206;21.030;2022-12-10T08:23:53;61.20;;;21.90;;
44893;SDS011;30625;52.206;21.030;2022-12-10T08:26:24;52.72;;;20.58;;
44893;SDS011;30625;52.206;21.030;2022-12-10T08:28:52;64.47;;;21.80;;
44893;SDS011;30625;52.206;21.030;2022-12-10T08:31:20;61.67;;;20.77;;
44893;SDS011;30625;52.206;21.030;2022-12-10T08:33:46;69.82;;;22.08;;
44893;SDS011;30625;52.206;21.030;2022-12-10T08:36:13;60.67;;;20.73;;
44893;SDS011;30625;52.206;21.030;2022-12-10T08:38:41;63.38;;;20.75;;
44893;SDS011;30625;52.206;21.030;2022-12-10T08:41:09;64.88;;;20.90;;
44893;SDS011;30625;52.206;21.030;2022-12-10T08:43:39;53.53;;;19.80;;
44893;SDS011;30625;52.206;21.030;2022-12-10T08:48:32;54.42;;;19.17;;
44893;SDS011;30625;52.206;21.030;2022-12-10T08:50:58;50.42;;;18.85;;
44893;SDS011;30625;52.206;21.030;2022-12-10T08:53:24;56.05;;;19.83;;
44893;SDS011;30625;52.206;21.030;2022-12-10T08:55:50;57.35;;;20.08;;
44893;SDS011;30625;52.206;21.030;2022-12-10T08:58:17;55.67;;;19.42;;
44893;SDS011;30625;52.206;21.030;2022-12-10T09:00:43;57.25;;;20.98;;
44893;SDS011;30625;52.206;21.030;2022-12-10T09:03:17;66.93;;;20.38;;
44893;SDS011;30625;52.206;21.030;2022-12-10T09:06:00;57.03;;;20.80;;
44893;SDS011;30625;52.206;21.030;2022-12-10T09:08:30;61.90;;;20.38;;
44893;SDS011;30625;52.206;21.030;2022-12-10T09:10:56;57.50;;;20.77;;
44893;SDS011;30625;52.206;21.030;2022-12-10T09:13:22;63.30;;;23.38;;
44893;SDS011;30625;52.206;21.030;2022-12-10T09:15:51;54.22;;;19.30;;
44893;SDS011;30625;52.206;21.030;2022-12-10T09:18:18;63.97;;;22.67;;
44893;SDS011;30625;52.206;21.030;2022-12-10T09:23:09;51.45;;;18.90;;
44893;SDS011;30625;52.206;21.030;2022-12-10T09:25:35;55.53;;;18.75;;
44893;SDS011;30625;52.206;21.030;2022-12-10T09:28:01;56.70;;;19.73;;
44893;SDS011;30625;52.206;21.030;2022-12-10T09:30:27;62.58;;;21.52;;
44893;SDS011;30625;52.206;21.030;2022-12-10T09:32:52;54.00;;;20.35;;
44893;SDS011;30625;52.206;21.030;2022-12-10T09:35:18;59.70;;;22.48;;
44893;SDS011;30625;52.206;21.030;2022-12-10T09:37:44;52.50;;;19.88;;
44893;SDS011;30625;52.206;21.030;2022-12-10T09:50:35;57.40;;;18.63;;
44893;SDS011;30625;52.206;21.030;2022-12-10T09:55:43;51.58;;;19.77;;
44893;SDS011;30625;52.206;21.030;2022-12-10T09:58:21;58.50;;;19.70;;
44893;SDS011;30625;52.206;21.030;2022-12-10T10:00:59;51.50;;;19.08;;
44893;SDS011;30625;52.206;21.030;2022-12-10T10:03:27;55.72;;;19.67;;
44893;SDS011;30625;52.206;21.030;2022-12-10T10:06:03;56.63;;;19.33;;
44893;SDS011;30625;52.206;21.030;2022-12-10T10:08:36;55.25;;;19.38;;
44893;SDS011;30625;52.206;21.030;2022-12-10T10:11:12;56.47;;;19.55;;
44893;SDS011;30625;52.206;21.030;2022-12-10T10:19:01;51.38;;;19.17;;
44893;SDS011;30625;52.206;21.030;2022-12-10T10:21:36;52.70;;;19.60;;
44893;SDS011;30625;52.206;21.030;2022-12-10T10:24:06;58.13;;;19.98;;
44893;SDS011;30625;52.206;21.030;2022-12-10T10:26:37;56.05;;;20.15;;
44893;SDS011;30625;52.206;21.030;2022-12-10T10:29:08;54.20;;;19.60;;
44893;SDS011;30625;52.206;21.030;2022-12-10T10:31:39;59.92;;;22.08;;
44893;SDS011;30625;52.206;21.030;2022-12-10T10:34:13;67.13;;;22.75;;
44893;SDS011;30625;52.206;21.030;2022-12-10T10:36:45;54.15;;;21.92;;
44893;SDS011;30625;52.206;21.030;2022-12-10T10:41:44;51.17;;;18.67;;
44893;SDS011;30625;52.206;21.030;2022-12-10T10:44:17;44.95;;;18.23;;
44893;SDS011;30625;52.206;21.030;2022-12-10T10:46:46;45.00;;;17.15;;
44893;SDS011;30625;52.206;21.030;2022-12-10T10:49:24;72.60;;;26.40;;
44893;SDS011;30625;52.206;21.030;2022-12-10T10:51:50;54.67;;;19.52;;
44893;SDS011;30625;52.206;21.030;2022-12-10T10:57:02;59.72;;;20.63;;
44893;SDS011;30625;52.206;21.030;2022-12-10T10:59:34;52.55;;;19.55;;
44893;SDS011;30625;52.206;21.030;2022-12-10T11:04:52;52.22;;;18.15;;
44893;SDS011;30625;52.206;21.030;2022-12-10T11:07:25;48.08;;;18.80;;
44893;SDS011;30625;52.206;21.030;2022-12-10T11:09:58;53.88;;;20.58;;
44893;SDS011;30625;52.206;21.030;2022-12-10T11:12:29;52.88;;;19.10;;
44893;SDS011;30625;52.206;21.030;2022-12-10T11:17:48;52.97;;;20.45;;
44893;SDS011;30625;52.206;21.030;2022-12-10T11:20:19;50.00;;;19.85;;
44893;SDS011;30625;52.206;21.030;2022-12-10T11:22:50;50.33;;;19.35;;
44893;SDS011;30625;52.206;21.030;2022-12-10T11:25:19;60.13;;;20.48;;
44893;SDS011;30625;52.206;21.030;2022-12-10T11:28:07;49.63;;;18.60;;
44893;SDS011;30625;52.206;21.030;2022-12-10T11:30:45;56.72;;;20.40;;
44893;SDS011;30625;52.206;21.030;2022-12-10T11:33:25;50.53;;;20.05;;
44893;SDS011;30625;52.206;21.030;2022-12-10T11:36:05;52.70;;;18.38;;
44893;SDS011;30625;52.206;21.030;2022-12-10T11:38:47;56.38;;;20.33;;
44893;SDS011;30625;52.206;21.030;2022-12-10T11:41:28;56.75;;;22.38;;
44893;SDS011;30625;52.206;21.030;2022-12-10T11:44:22;51.95;;;19.17;;
44893;SDS011;30625;52.206;21.030;2022-12-10T11:52:16;65.55;;;20.52;;
44893;SDS011;30625;52.206;21.030;2022-12-10T11:57:43;61.83;;;19.15;;
44893;SDS011;30625;52.206;21.030;2022-12-10T12:00:25;55.17;;;19.52;;
44893;SDS011;30625;52.206;21.030;2022-12-10T12:05:27;66.63;;;20.10;;
44893;SDS011;30625;52.206;21.030;2022-12-10T12:11:10;65.45;;;19.60;;
44893;SDS011;30625;52.206;21.030;2022-12-10T12:18:44;57.67;;;19.25;;
44893;SDS011;30625;52.206;21.030;2022-12-10T12:21:20;51.47;;;18.42;;
44893;SDS011;30625;52.206;21.030;2022-12-10T12:23:51;51.75;;;19.05;;
44893;SDS011;30625;52.206;21.030;2022-12-10T12:29:41;64.15;;;21.50;;
44893;SDS011;30625;52.206;21.030;2022-12-10T12:32:25;58.17;;;19.98;;
44893;SDS011;30625;52.206;21.030;2022-12-10T12:35:06;54.42;;;17.77;;
44893;SDS011;30625;52.206;21.030;2022-12-10T12:37:41;49.28;;;18.45;;
44893;SDS011;30625;52.206;21.030;2022-12-10T12:40:29;57.85;;;21.10;;
44893;SDS011;30625;52.206;21.030;2022-12-10T12:45:35;54.05;;;19.52;;
44893;SDS011;30625;52.206;21.030;2022-12-10T12:53:24;53.60;;;20.48;;
44893;SDS011;30625;52.206;21.030;2022-12-10T13:03:55;63.70;;;22.17;;
44893;SDS011;30625;52.206;21.030;2022-12-10T13:06:23;55.72;;;20.08;;
44893;SDS011;30625;52.206;21.030;2022-12-10T13:11:46;54.78;;;20.60;;
44893;SDS011;30625;52.206;21.030;2022-12-10T13:28:29;54.10;;;19.08;;
44893;SDS011;30625;52.206;21.030;2022-12-10T13:36:09;53.45;;;20.67;;
44893;SDS011;30625;52.206;21.030;2022-12-10T13:38:42;59.45;;;22.80;;
44893;SDS011;30625;52.206;21.030;2022-12-10T13:41:40;46.97;;;20.17;;
44893;SDS011;30625;52.206;21.030;2022-12-10T13:44:46;49.55;;;19.83;;
44893;SDS011;30625;52.206;21.030;2022-12-10T13:52:31;47.88;;;20.02;;
44893;SDS011;30625;52.206;21.030;2022-12-10T14:00:57;55.50;;;21.38;;
44893;SDS011;30625;52.206;21.030;2022-12-10T14:09:17;50.35;;;20.23;;
44893;SDS011;30625;52.206;21.030;2022-12-10T14:17:06;52.08;;;20.33;;
44893;SDS011;30625;52.206;21.030;2022-12-10T14:19:41;52.28;;;21.05;;
44893;SDS011;30625;52.206;21.030;2022-12-10T14:22:17;47.67;;;19.38;;
44893;SDS011;30625;52.206;21.030;2022-12-10T14:24:49;56.97;;;20.63;;
44893;SDS011;30625;52.206;21.030;2022-12-10T14:27:18;55.75;;;21.92;;
44893;SDS011;30625;52.206;21.030;2022-12-10T14:29:53;51.40;;;21.23;;
44893;SDS011;30625;52.206;21.030;2022-12-10T14:32:40;51.85;;;20.30;;
44893;SDS011;30625;52.206;21.030;2022-12-10T14:35:07;60.97;;;21.75;;
44893;SDS011;30625;52.206;21.030;2022-12-10T14:37:47;56.30;;;22.02;;
44893;SDS011;30625;52.206;21.030;2022-12-10T14:40:18;51.97;;;21.17;;
44893;SDS011;30625;52.206;21.030;2022-12-10T14:42:47;46.90;;;21.98;;
44893;SDS011;30625;52.206;21.030;2022-12-10T14:45:15;49.67;;;21.70;;
44893;SDS011;30625;52.206;21.030;2022-12-10T14:47:41;48.05;;;21.02;;
44893;SDS011;30625;52.206;21.030;2022-12-10T14:50:11;48.88;;;21.67;;
44893;SDS011;30625;52.206;21.030;2022-12-10T14:52:39;51.97;;;21.42;;
44893;SDS011;30625;52.206;21.030;2022-12-10T14:55:11;46.42;;;20.00;;
44893;SDS011;30625;52.206;21.030;2022-12-10T14:57:43;45.92;;;20.92;;
44893;SDS011;30625;52.206;21.030;2022-12-10T15:00:15;47.63;;;19.90;;
44893;SDS011;30625;52.206;21.030;2022-12-10T15:02:53;45.70;;;19.77;;
44893;SDS011;30625;52.206;21.030;2022-12-10T15:05:32;46.33;;;20.13;;
44893;SDS011;30625;52.206;21.030;2022-12-10T15:08:32;48.28;;;20.77;;
44893;SDS011;30625;52.206;21.030;2022-12-10T15:10:52;46.88;;;21.05;;
44893;SDS011;30625;52.206;21.030;2022-12-10T15:13:22;43.40;;;20.08;;
44893;SDS011;30625;52.206;21.030;2022-12-10T15:15:52;47.40;;;21.88;;
44893;SDS011;30625;52.206;21.030;2022-12-10T15:18:19;44.10;;;20.13;;
44893;SDS011;30625;52.206;21.030;2022-12-10T15:21:01;43.25;;;20.15;;
44893;SDS011;30625;52.206;21.030;2022-12-10T15:23:34;49.20;;;22.52;;
44893;SDS011;30625;52.206;21.030;2022-12-10T15:26:09;51.22;;;21.85;;
44893;SDS011;30625;52.206;21.030;2022-12-10T15:28:38;50.20;;;22.02;;
44893;SDS011;30625;52.206;21.030;2022-12-10T15:33:47;51.17;;;23.23;;
44893;SDS011;30625;52.206;21.030;2022-12-10T15:39:13;52.05;;;22.98;;
44893;SDS011;30625;52.206;21.030;2022-12-10T15:41:44;53.67;;;24.20;;
44893;SDS011;30625;52.206;21.030;2022-12-10T15:46:50;53.28;;;23.73;;
44893;SDS011;30625;52.206;21.030;2022-12-10T15:49:24;53.10;;;24.70;;
44893;SDS011;30625;52.206;21.030;2022-12-10T15:51:50;50.35;;;23.00;;
44893;SDS011;30625;52.206;21.030;2022-12-10T15:54:21;50.72;;;24.25;;
44893;SDS011;30625;52.206;21.030;2022-12-10T15:56:51;52.25;;;24.15;;
44893;SDS011;30625;52.206;21.030;2022-12-10T15:59:17;54.83;;;24.10;;
44893;SDS011;30625;52.206;21.030;2022-12-10T16:01:44;51.28;;;24.77;;
44893;SDS011;30625;52.206;21.030;2022-12-10T16:04:10;56.45;;;24.65;;
44893;SDS011;30625;52.206;21.030;2022-12-10T16:06:36;49.50;;;23.80;;
44893;SDS011;30625;52.206;21.030;2022-12-10T16:09:02;52.22;;;23.63;;
44893;SDS011;30625;52.206;21.030;2022-12-10T16:11:28;51.90;;;24.77;;
44893;SDS011;30625;52.206;21.030;2022-12-10T16:13:54;51.05;;;24.50;;
44893;SDS011;30625;52.206;21.030;2022-12-10T16:16:22;48.45;;;22.13;;
44893;SDS011;30625;52.206;21.030;2022-12-10T16:18:48;52.03;;;23.65;;
44893;SDS011;30625;52.206;21.030;2022-12-10T16:21:14;50.88;;;23.30;;
44893;SDS011;30625;52.206;21.030;2022-12-10T16:23:40;43.83;;;20.98;;
44893;SDS011;30625;52.206;21.030;2022-12-10T16:26:16;47.85;;;22.42;;
44893;SDS011;30625;52.206;21.030;2022-12-10T16:28:44;44.40;;;21.88;;
44893;SDS011;30625;52.206;21.030;2022-12-10T16:31:11;46.47;;;23.23;;
44893;SDS011;30625;52.206;21.030;2022-12-10T16:33:40;46.60;;;22.27;;
44893;SDS011;30625;52.206;21.030;2022-12-10T16:38:32;45.47;;;22.10;;
44893;SDS011;30625;52.206;21.030;2022-12-10T16:40:58;48.22;;;22.70;;
44893;SDS011;30625;52.206;21.030;2022-12-10T16:43:26;47.38;;;23.38;;
44893;SDS011;30625;52.206;21.030;2022-12-10T16:45:53;48.60;;;22.13;;
44893;SDS011;30625;52.206;21.030;2022-12-10T16:48:19;44.47;;;22.48;;
44893;SDS011;30625;52.206;21.030;2022-12-10T16:50:45;44.67;;;21.85;;
44893;SDS011;30625;52.206;21.030;2022-12-10T16:53:18;43.15;;;20.60;;
44893;SDS011;30625;52.206;21.030;2022-12-10T16:55:52;48.90;;;22.85;;
44893;SDS011;30625;52.206;21.030;2022-12-10T17:00:54;46.83;;;22.90;;
44893;SDS011;30625;52.206;21.030;2022-12-10T17:03:21;45.65;;;22.25;;
44893;SDS011;30625;52.206;21.030;2022-12-10T17:05:49;49.67;;;22.77;;
44893;SDS011;30625;52.206;21.030;2022-12-10T17:08:16;51.15;;;23.23;;
44893;SDS011;30625;52.206;21.030;2022-12-10T17:10:42;46.75;;;22.02;;
44893;SDS011;30625;52.206;21.030;2022-12-10T17:13:26;50.40;;;22.65;;
44893;SDS011;30625;52.206;21.030;2022-12-10T17:15:54;47.88;;;22.50;;
44893;SDS011;30625;52.206;21.030;2022-12-10T17:18:21;51.72;;;23.75;;
44893;SDS011;30625;52.206;21.030;2022-12-10T17:20:48;48.05;;;22.80;;
44893;SDS011;30625;52.206;21.030;2022-12-10T17:23:14;49.38;;;21.60;;